createdAt,value
2019-02-08T00:03:35.362Z,61513.45
2019-02-08T00:06:44.810Z,61522.04
2019-02-08T00:09:10.938Z,61521.50
2019-02-08T00:11:37.170Z,61513.69
2019-02-08T00:14:05.316Z,61522.58
2019-02-08T00:16:31.561Z,61511.34
2019-02-08T00:18:57.691Z,61518.28
2019-02-08T00:21:23.840Z,61511.74
2019-02-08T00:23:50.064Z,61518.82
2019-02-08T00:26:16.309Z,61518.28
2019-02-08T00:28:42.436Z,61519.36
2019-02-08T00:31:08.587Z,61520.44
2019-02-08T00:33:34.808Z,61514.77
2019-02-08T00:36:03.044Z,61524.74
2019-02-08T00:38:29.172Z,61531.77
2019-02-08T00:40:55.308Z,61519.27
2019-02-08T00:43:21.432Z,61522.58
2019-02-08T00:45:47.556Z,61520.98
2019-02-08T00:48:13.801Z,61504.66
2019-02-08T00:50:39.931Z,61521.50
2019-02-08T00:53:06.069Z,61514.77
2019-02-08T00:55:32.187Z,61524.20
2019-02-08T00:57:58.523Z,61527.96
2019-02-08T01:00:24.744Z,61528.48
2019-02-08T01:03:32.288Z,61530.64
2019-02-08T01:05:59.019Z,61532.25
2019-02-08T01:08:25.355Z,61515.73
2019-02-08T01:10:51.488Z,61520.23
2019-02-08T01:13:17.731Z,61537.09
2019-02-08T01:15:43.963Z,61539.77
2019-02-08T01:18:10.199Z,61528.74
2019-02-08T01:20:36.424Z,61540.85
2019-02-08T01:23:43.960Z,61543.54
2019-02-08T01:28:50.279Z,61547.84
2019-02-08T01:31:16.501Z,61541.81
2019-02-08T01:33:42.745Z,61541.08
2019-02-08T01:36:08.867Z,61552.14
2019-02-08T01:38:35.007Z,61554.82
2019-02-08T01:41:01.231Z,61542.25
2019-02-08T01:43:27.368Z,61561.27
2019-02-08T01:45:53.587Z,61553.99
2019-02-08T01:48:19.839Z,61555.05
2019-02-08T01:50:46.064Z,61566.11
2019-02-08T01:53:12.202Z,61567.71
2019-02-08T01:55:38.430Z,61562.04
2019-02-08T01:58:04.663Z,61573.10
2019-02-08T02:01:12.192Z,61574.16
2019-02-08T02:03:38.327Z,61576.32
2019-02-08T02:06:04.651Z,61577.54
2019-02-08T02:08:30.891Z,61582.23
2019-02-08T02:10:57.114Z,61577.28
2019-02-08T02:13:23.246Z,61587.07
2019-02-08T02:15:49.377Z,61588.16
2019-02-08T02:18:15.527Z,61589.21
2019-02-08T02:23:56.263Z,61593.52
2019-02-08T02:26:23.702Z,61594.60
2019-02-08T02:28:49.940Z,61597.29
2019-02-08T02:31:16.079Z,61597.82
2019-02-08T02:33:42.225Z,61602.65
2019-02-08T02:36:08.446Z,61604.27
2019-02-08T02:38:34.575Z,61599.30
2019-02-08T02:41:00.831Z,61609.10
2019-02-08T02:43:27.066Z,61609.62
2019-02-08T02:45:53.207Z,61613.39
2019-02-08T02:48:19.327Z,61606.11
2019-02-08T02:50:45.608Z,61617.69
2019-02-08T02:53:11.701Z,61612.74
2019-02-08T02:55:37.941Z,61620.18
2019-02-08T03:01:18.181Z,61627.91
2019-02-08T03:03:44.317Z,61631.68
2019-02-08T03:06:10.555Z,61633.84
2019-02-08T03:08:36.680Z,61637.06
2019-02-08T03:13:57.085Z,61642.43
2019-02-08T03:16:23.351Z,61639.11
2019-02-08T03:18:49.577Z,61649.42
2019-02-08T03:21:15.722Z,61652.11
2019-02-08T03:23:41.951Z,61640.82
2019-02-08T03:26:08.090Z,61638.60
2019-02-08T03:28:34.318Z,61658.04
2019-02-08T03:31:00.584Z,61654.71
2019-02-08T03:33:26.735Z,61664.49
2019-02-08T03:35:52.942Z,61668.80
2019-02-08T03:38:19.207Z,61662.04
2019-02-08T03:40:45.457Z,61672.57
2019-02-08T03:46:19.124Z,61679.57
2019-02-08T03:48:45.352Z,61682.25
2019-02-08T03:51:11.594Z,61686.02
2019-02-08T03:53:37.721Z,61686.02
2019-02-08T03:56:03.967Z,61678.71
2019-02-08T03:58:30.089Z,61694.10
2019-02-08T04:01:37.642Z,61695.51
2019-02-08T04:04:23.611Z,61700.55
2019-02-08T04:06:49.851Z,61704.32
2019-02-08T04:09:16.083Z,61707.55
2019-02-08T04:11:42.422Z,61709.15
2019-02-08T04:14:08.562Z,61711.65
2019-02-08T04:16:34.800Z,61718.86
2019-02-08T04:19:00.928Z,61716.59
2019-02-08T04:21:27.164Z,61714.86
2019-02-08T04:23:53.412Z,61735.54
2019-02-08T04:26:19.679Z,61742.00
2019-02-08T04:28:45.909Z,61735.22
2019-02-08T04:31:12.136Z,61749.00
2019-02-08T04:33:38.269Z,61752.77
2019-02-08T04:36:04.494Z,61757.09
2019-02-08T04:38:30.725Z,61760.31
2019-02-08T04:40:56.953Z,61762.27
2019-02-08T04:43:23.190Z,61752.35
2019-02-08T04:45:49.417Z,61773.23
2019-02-08T04:48:15.652Z,61778.63
2019-02-08T04:50:41.771Z,61776.36
2019-02-08T04:53:08.009Z,61780.48
2019-02-08T04:55:34.155Z,61793.70
2019-02-08T04:58:00.281Z,61794.79
2019-02-08T05:00:46.259Z,61784.87
2019-02-08T05:03:12.402Z,61801.79
2019-02-08T05:05:38.567Z,61806.64
2019-02-08T05:08:04.847Z,61805.45
2019-02-08T05:11:12.356Z,61816.34
2019-02-08T05:13:38.508Z,61819.38
2019-02-08T05:16:04.631Z,61820.45
2019-02-08T05:18:30.779Z,61825.50
2019-02-08T05:20:57.007Z,61830.16
2019-02-08T05:23:23.259Z,61829.16
2019-02-08T05:25:49.473Z,61840.05
2019-02-08T05:28:15.610Z,61845.45
2019-02-08T05:30:41.820Z,61846.52
2019-02-08T05:33:07.967Z,61852.46
2019-02-08T05:35:34.204Z,61854.06
2019-02-08T05:38:00.433Z,61851.59
2019-02-08T05:40:26.674Z,61855.04
2019-02-08T05:42:52.891Z,61862.70
2019-02-08T05:46:00.438Z,61865.91
2019-02-08T05:48:26.675Z,61869.69
2019-02-08T05:50:52.808Z,61863.98
2019-02-08T05:53:18.945Z,61876.16
2019-02-08T05:55:45.068Z,61876.70
2019-02-08T05:58:11.197Z,61881.02
2019-02-08T06:00:57.677Z,61885.86
2019-02-08T06:03:23.829Z,61888.57
2019-02-08T06:08:43.611Z,61899.88
2019-02-08T06:11:09.845Z,61897.76
2019-02-08T06:13:36.077Z,61906.59
2019-02-08T06:16:02.414Z,61919.31
2019-02-08T06:18:28.546Z,61927.41
2019-02-08T06:20:54.779Z,61936.03
2019-02-08T06:23:20.896Z,61939.81
2019-02-08T06:25:47.127Z,61941.44
2019-02-08T06:28:13.388Z,61935.37
2019-02-08T06:30:39.522Z,61945.74
2019-02-08T06:36:19.469Z,61948.98
2019-02-08T06:38:45.591Z,61943.48
2019-02-08T06:41:11.723Z,61949.87
2019-02-08T06:43:37.940Z,61955.47
2019-02-08T06:46:04.192Z,61957.62
2019-02-08T06:48:30.409Z,61946.05
2019-02-08T06:50:56.649Z,61955.14
2019-02-08T06:53:22.762Z,61948.55
2019-02-08T06:55:53.689Z,61970.57
2019-02-08T06:58:36.884Z,61966.68
2019-02-08T07:04:24.293Z,61975.86
2019-02-08T07:09:44.279Z,61976.27
2019-02-08T07:12:30.283Z,61993.06
2019-02-08T07:17:50.371Z,62003.45
2019-02-08T07:20:36.356Z,62013.22
2019-02-08T07:26:15.861Z,62025.66
2019-02-08T07:31:35.819Z,62027.36
2019-02-08T07:36:55.972Z,62056.99
2019-02-08T07:42:42.333Z,62065.64
2019-02-08T07:45:49.884Z,62073.19
2019-02-08T07:51:49.980Z,62073.75
2019-02-08T07:54:35.964Z,62091.02
2019-02-08T07:59:55.968Z,62100.77
2019-02-08T08:02:55.580Z,62105.07
2019-02-08T08:06:03.140Z,62109.95
2019-02-08T08:11:49.612Z,62111.32
2019-02-08T08:14:35.702Z,62118.35
2019-02-08T08:17:21.687Z,62138.61
2019-02-08T08:23:08.171Z,62147.27
2019-02-08T08:26:15.712Z,62151.04
2019-02-08T08:29:01.690Z,62155.17
2019-02-08T08:32:09.230Z,62161.86
2019-02-08T08:38:28.751Z,62172.68
2019-02-08T08:44:35.232Z,62174.73
2019-02-08T08:47:40.982Z,62187.83
2019-02-08T08:50:46.716Z,62193.77
2019-02-08T08:53:52.457Z,62199.20
2019-02-08T09:03:11.916Z,62206.23
2019-02-08T09:06:17.657Z,62205.69
2019-02-08T09:09:23.380Z,62199.07
2019-02-08T09:12:29.129Z,62208.39
2019-02-08T09:18:28.582Z,62212.72
2019-02-08T09:21:34.324Z,62209.00
2019-02-08T09:24:40.061Z,62213.81
2019-02-08T09:27:47.599Z,62218.14
2019-02-08T09:30:53.320Z,62221.39
2019-02-08T09:33:59.064Z,62223.89
2019-02-08T09:40:18.806Z,62238.71
2019-02-08T09:43:24.452Z,62240.87
2019-02-08T09:46:30.174Z,62234.92
2019-02-08T09:49:35.921Z,62226.40
2019-02-08T09:52:43.456Z,62225.70
2019-02-08T09:55:49.196Z,62218.61
2019-02-08T10:01:55.376Z,62223.00
2019-02-08T10:05:01.117Z,62225.70
2019-02-08T10:08:06.854Z,62212.47
2019-02-08T10:11:12.599Z,62231.12
2019-02-08T10:14:18.319Z,62234.92
2019-02-08T10:17:24.059Z,62223.49
2019-02-08T10:26:30.865Z,62240.87
2019-02-08T10:29:36.596Z,62241.96
2019-02-08T10:32:42.346Z,62245.20
2019-02-08T10:38:48.292Z,62244.53
2019-02-08T10:44:54.434Z,62253.87
2019-02-08T10:48:00.175Z,62250.48
2019-02-08T10:51:05.919Z,62260.91
2019-02-08T10:54:11.641Z,62263.61
2019-02-08T10:57:17.390Z,62261.85
2019-02-08T11:00:23.124Z,62271.74
2019-02-08T11:03:30.667Z,62276.60
2019-02-08T11:06:36.404Z,62279.85
2019-02-08T11:09:42.140Z,62282.03
2019-02-08T11:12:47.882Z,62287.98
2019-02-08T11:15:53.603Z,62292.32
2019-02-08T11:18:59.348Z,62287.31
2019-02-08T11:21:25.587Z,62297.73
2019-02-08T11:23:51.717Z,62300.43
2019-02-08T11:26:22.486Z,62301.52
2019-02-08T11:28:45.978Z,62294.35
2019-02-08T11:31:12.099Z,62304.77
2019-02-08T11:33:38.231Z,62291.71
2019-02-08T11:39:53.121Z,62312.77
2019-02-08T11:42:19.288Z,62326.98
2019-02-08T11:44:45.536Z,62347.03
2019-02-08T11:47:11.773Z,62357.93
2019-02-08T11:49:38.004Z,62375.76
2019-02-08T11:52:04.125Z,62392.58
2019-02-08T11:54:30.257Z,62406.13
2019-02-08T11:56:56.382Z,62416.70
2019-02-08T11:59:22.617Z,62435.95
2019-02-08T12:01:48.836Z,62445.18
2019-02-08T12:04:56.374Z,62453.85
2019-02-08T12:07:22.494Z,62457.65
2019-02-08T12:09:48.734Z,62458.20
2019-02-08T12:12:14.956Z,62457.65
2019-02-08T12:14:41.106Z,62458.20
2019-02-08T12:17:07.326Z,62453.39
2019-02-08T12:19:33.480Z,62459.62
2019-02-08T12:21:59.699Z,62463.09
2019-02-08T12:24:33.152Z,62463.63
2019-02-08T12:26:59.380Z,62456.43
2019-02-08T12:29:25.610Z,62468.51
2019-02-08T12:31:51.846Z,62468.51
2019-02-08T12:34:18.068Z,62468.51
2019-02-08T12:36:44.304Z,62455.42
2019-02-08T12:39:10.639Z,62471.21
2019-02-08T12:41:36.764Z,62464.03
2019-02-08T12:44:44.296Z,62459.41
2019-02-08T12:47:10.527Z,62472.85
2019-02-08T12:49:36.651Z,62472.85
2019-02-08T12:52:02.889Z,62472.30
2019-02-08T12:54:29.018Z,62466.75
2019-02-08T12:56:55.251Z,62477.74
2019-02-08T12:59:21.483Z,62464.09
2019-02-08T13:01:47.738Z,62477.74
2019-02-08T13:04:13.965Z,62477.74
2019-02-08T13:09:26.330Z,62471.62
2019-02-08T13:11:52.558Z,62478.81
2019-02-08T13:14:18.791Z,62477.20
2019-02-08T13:16:45.049Z,62478.81
2019-02-08T13:19:11.205Z,62470.54
2019-02-08T13:24:33.996Z,62478.27
2019-02-08T13:27:00.227Z,62478.27
2019-02-08T13:29:26.460Z,62478.27
2019-02-08T13:31:52.704Z,62478.81
2019-02-08T13:34:18.941Z,62465.38
2019-02-08T13:36:45.175Z,62476.65
2019-02-08T13:39:11.400Z,62470.01
2019-02-08T13:41:37.643Z,62476.65
2019-02-08T13:44:03.868Z,62476.11
2019-02-08T13:46:30.110Z,62471.30
2019-02-08T13:48:56.227Z,62478.27
2019-02-08T13:51:22.452Z,62477.20
2019-02-08T13:53:48.723Z,62476.11
2019-02-08T13:56:14.904Z,62476.65
2019-02-08T13:58:41.138Z,62480.45
2019-02-08T14:01:07.360Z,62478.81
2019-02-08T14:03:33.504Z,62478.27
2019-02-08T14:05:59.724Z,62479.36
2019-02-08T14:08:25.951Z,62467.76
2019-02-08T14:10:52.185Z,62478.81
2019-02-08T14:13:18.432Z,62478.27
2019-02-08T14:15:44.649Z,62478.27
2019-02-08T14:18:10.891Z,62479.36
2019-02-08T14:20:37.121Z,62465.92
2019-02-08T14:23:03.459Z,62478.81
2019-02-08T14:25:29.693Z,62463.34
2019-02-08T14:27:55.932Z,62470.54
2019-02-08T14:31:03.460Z,62478.27
2019-02-08T14:33:29.599Z,62465.59
2019-02-08T14:35:56.076Z,62477.74
2019-02-08T14:38:24.084Z,62476.65
2019-02-08T14:40:50.323Z,62467.82
2019-02-08T14:43:16.565Z,62467.82
2019-02-08T14:45:42.788Z,62472.85
2019-02-08T14:48:09.041Z,62454.27
2019-02-08T14:50:35.270Z,62439.68
2019-02-08T14:53:01.514Z,62441.93
2019-02-08T14:58:35.085Z,62418.59
2019-02-08T15:01:42.670Z,62409.93
2019-02-08T15:04:08.904Z,62409.93
2019-02-08T15:06:35.132Z,62386.88
2019-02-08T15:09:01.388Z,62389.39
2019-02-08T15:11:27.613Z,62379.62
2019-02-08T15:13:53.851Z,62376.30
2019-02-08T15:16:20.077Z,62369.80
2019-02-08T15:18:46.236Z,62360.59
2019-02-08T15:21:12.477Z,62341.88
2019-02-08T15:23:38.676Z,62329.43
2019-02-08T15:26:04.804Z,62343.23
2019-02-08T15:28:31.031Z,62343.78
2019-02-08T15:30:57.274Z,62341.62
2019-02-08T15:33:23.497Z,62334.03
2019-02-08T15:35:49.732Z,62318.39
2019-02-08T15:38:15.958Z,62320.49
2019-02-08T15:41:23.519Z,62313.99
2019-02-08T15:43:49.738Z,62309.11
2019-02-08T15:46:16.092Z,62308.02
2019-02-08T15:48:42.411Z,62288.27
2019-02-08T15:51:08.652Z,62298.82
2019-02-08T15:53:34.877Z,62278.92
2019-02-08T15:56:42.437Z,62276.74
2019-02-08T15:59:08.562Z,62282.55
2019-02-08T16:01:34.801Z,62278.24
2019-02-08T16:04:01.027Z,62266.19
2019-02-08T16:06:27.262Z,62258.61
2019-02-08T16:08:53.411Z,62261.43
2019-02-08T16:11:19.633Z,62257.12
2019-02-08T16:13:45.882Z,62251.15
2019-02-08T16:16:11.997Z,62232.83
2019-02-08T16:18:38.249Z,62221.18
2019-02-08T16:21:04.488Z,62222.46
2019-02-08T16:26:38.068Z,62207.32
2019-02-08T16:29:45.612Z,62100.22
2019-02-08T16:32:11.867Z,62185.75
2019-02-08T16:40:45.962Z,62148.64
2019-02-08T16:43:12.200Z,62156.53
2019-02-08T16:46:19.759Z,62158.61
2019-02-08T16:48:46.191Z,62149.97
2019-02-08T16:51:12.323Z,62127.42
2019-02-08T16:53:38.564Z,62120.91
2019-02-08T16:58:58.393Z,62110.99
2019-02-08T17:01:24.621Z,62111.59
2019-02-08T17:03:50.768Z,62115.37
2019-02-08T17:06:16.905Z,62092.07
2019-02-08T17:08:43.148Z,62088.09
2019-02-08T17:11:09.375Z,62091.86
2019-02-08T17:13:35.506Z,62080.64
2019-02-08T17:16:01.733Z,62082.39
2019-02-08T17:18:27.885Z,62085.09
2019-02-08T17:20:54.120Z,62069.03
2019-02-08T17:23:20.404Z,62071.04
2019-02-08T17:25:46.626Z,62064.01
2019-02-08T17:28:54.172Z,62040.75
2019-02-08T17:31:20.414Z,62053.20
2019-02-08T17:33:46.684Z,62036.42
2019-02-08T17:36:12.793Z,62039.58
2019-02-08T17:38:39.031Z,62044.03
2019-02-08T17:41:05.641Z,62041.85
2019-02-08T17:43:31.895Z,62036.46
2019-02-08T17:45:58.017Z,62028.78
2019-02-08T17:48:24.259Z,62018.52
2019-02-08T17:50:50.382Z,62005.62
2019-02-08T17:53:16.623Z,62022.96
2019-02-08T17:55:42.944Z,62019.18
2019-02-08T17:58:09.076Z,62013.11
2019-02-08T18:03:29.405Z,62012.68
2019-02-08T18:05:55.535Z,62010.53
2019-02-08T18:08:21.782Z,62011.07
2019-02-08T18:10:48.016Z,61999.80
2019-02-08T18:16:02.033Z,61996.49
2019-02-08T18:18:28.289Z,61992.05
2019-02-08T18:24:07.948Z,61998.64
2019-02-08T18:26:34.079Z,61990.56
2019-02-08T18:29:00.319Z,61986.54
2019-02-08T18:31:26.459Z,61993.68
2019-02-08T18:33:52.711Z,62001.90
2019-02-08T18:36:18.940Z,61994.61
2019-02-08T18:38:45.156Z,61977.90
2019-02-08T18:41:11.390Z,61984.70
2019-02-08T18:43:37.515Z,61977.47
2019-02-08T18:46:03.852Z,61966.02
2019-02-08T18:48:30.077Z,61981.91
2019-02-08T18:50:56.311Z,61983.00
2019-02-08T18:53:22.438Z,61980.30
2019-02-08T18:55:48.677Z,61973.29
2019-02-08T18:58:18.992Z,61963.44
2019-02-08T19:01:03.290Z,61966.13
2019-02-08T19:03:29.515Z,61972.74
2019-02-08T19:05:55.751Z,61971.66
2019-02-08T19:08:21.977Z,61952.72
2019-02-08T19:10:48.232Z,61955.34
2019-02-08T19:13:14.451Z,61964.09
2019-02-08T19:15:40.691Z,61950.38
2019-02-08T19:18:06.919Z,61965.18
2019-02-08T19:20:33.173Z,61959.33
2019-02-08T19:22:59.393Z,61959.77
2019-02-08T19:25:45.499Z,61944.35
2019-02-08T19:31:25.074Z,61936.03
2019-02-08T19:33:51.199Z,61927.41
2019-02-08T19:36:17.432Z,61927.41
2019-02-08T19:38:43.657Z,61929.56
2019-02-08T19:41:09.926Z,61914.69
2019-02-08T19:43:36.143Z,61910.75
2019-02-08T19:46:02.487Z,61916.08
2019-02-08T19:48:28.724Z,61916.62
2019-02-08T19:50:54.848Z,61918.23
2019-02-08T19:53:20.982Z,61906.24
2019-02-08T19:55:47.204Z,61911.21
2019-02-08T19:58:13.349Z,61896.07
2019-02-08T20:03:29.679Z,61906.89
2019-02-08T20:05:55.917Z,61899.23
2019-02-08T20:08:22.161Z,61896.94
2019-02-08T20:13:38.504Z,61888.44
2019-02-08T20:18:55.614Z,61890.18
2019-02-08T20:21:21.749Z,61887.76
2019-02-08T20:23:47.986Z,61892.87
2019-02-08T20:26:14.220Z,61887.29
2019-02-08T20:28:42.331Z,61875.80
2019-02-08T20:31:08.629Z,61891.70
2019-02-08T20:33:34.880Z,61886.40
2019-02-08T20:36:01.004Z,61869.99
2019-02-08T20:38:27.250Z,61867.49
2019-02-08T20:40:53.474Z,61879.39
2019-02-08T20:43:19.716Z,61881.54
2019-02-08T20:45:45.941Z,61871.54
2019-02-08T20:48:31.933Z,61867.49
2019-02-08T20:50:58.172Z,61871.18
2019-02-08T20:53:24.324Z,61867.95
2019-02-08T20:59:04.244Z,61871.84
2019-02-08T21:01:30.481Z,61872.38
2019-02-08T21:03:56.644Z,61871.30
2019-02-08T21:06:22.886Z,61870.77
2019-02-08T21:08:49.134Z,61872.38
2019-02-08T21:11:15.417Z,61862.03
2019-02-08T21:13:41.628Z,61861.48
2019-02-08T21:16:07.850Z,61863.63
2019-02-08T21:18:34.075Z,61871.30
2019-02-08T21:21:00.339Z,61869.69
2019-02-08T21:23:26.574Z,61863.44
2019-02-08T21:25:52.732Z,61874.53
2019-02-08T21:28:18.979Z,61875.61
2019-02-08T21:30:45.212Z,61867.62
2019-02-08T21:33:11.438Z,61857.93
2019-02-08T21:35:37.697Z,61859.96
2019-02-08T21:38:45.241Z,61874.53
2019-02-08T21:41:11.389Z,61858.14
2019-02-08T21:43:37.615Z,61874.53
2019-02-08T21:46:03.860Z,61872.38
2019-02-08T21:48:30.096Z,61874.53
2019-02-08T21:50:56.341Z,61807.19
2019-02-08T21:53:22.568Z,61866.87
2019-02-08T21:55:48.809Z,61873.46
2019-02-08T21:58:15.041Z,61873.46
2019-02-08T22:01:22.591Z,61872.38
2019-02-08T22:03:48.819Z,61859.61
2019-02-08T22:06:14.967Z,61872.92
2019-02-08T22:08:41.231Z,61872.38
2019-02-08T22:11:07.459Z,61870.23
2019-02-08T22:13:33.705Z,61868.06
2019-02-08T22:15:59.844Z,61868.06
2019-02-08T22:18:26.078Z,61860.94
2019-02-08T22:20:52.330Z,61868.06
2019-02-08T22:23:18.461Z,61862.03
2019-02-08T22:25:44.707Z,61870.23
2019-02-08T22:28:10.944Z,61859.34
2019-02-08T22:30:37.167Z,61856.57
2019-02-08T22:33:44.712Z,61850.05
2019-02-08T22:36:10.974Z,61852.60
2019-02-08T22:38:37.205Z,61867.00
2019-02-08T22:41:03.548Z,61868.61
2019-02-08T22:43:29.683Z,61861.13
2019-02-08T22:45:55.912Z,61867.52
2019-02-08T22:48:22.162Z,61861.68
2019-02-08T22:50:48.391Z,61848.98
2019-02-08T22:53:14.627Z,61861.07
2019-02-08T22:55:40.749Z,61861.07
2019-02-08T23:01:45.305Z,61848.98
2019-02-08T23:04:11.540Z,61862.16
2019-02-08T23:06:44.523Z,61853.68
2019-02-08T23:09:47.216Z,61849.12
2019-02-08T23:12:13.469Z,61850.72
2019-02-08T23:14:39.703Z,61858.38
2019-02-08T23:17:47.263Z,61860.53
2019-02-08T23:23:27.461Z,61851.02
2019-02-08T23:25:53.690Z,61855.04
2019-02-08T23:28:19.929Z,61855.58
2019-02-08T23:30:46.163Z,61852.68
2019-02-08T23:33:12.391Z,61860.53
2019-02-08T23:35:43.001Z,61852.68
2019-02-08T23:38:06.672Z,61855.77
2019-02-08T23:40:32.807Z,61862.51
2019-02-08T23:43:40.348Z,61854.30
2019-02-08T23:46:06.586Z,61855.04
2019-02-08T23:48:32.725Z,61862.70
2019-02-08T23:50:58.962Z,61863.79
2019-02-08T23:53:25.228Z,61865.91
2019-02-08T23:55:51.456Z,61849.53
2019-02-08T23:58:17.697Z,61863.24
